Terminal Aerodrome Forecast
Issued by NWS

Current Version | Previous Version | Text Only | Print | Product List | Glossary On
Versions: 1 2 3 4 5 6 7 8 9 10 11 12 13 14 15 16 17 18 19 20 21
000
FTUS42 KGSP 162300
TAFAND
TAF
KAND 162320Z 1700/1724 07008KT P6SM SKC
     FM171300 06012KT P6SM SCT250
      TEMPO 1713/1717 06012G18KT
     FM172200 08008KT P6SM SCT050 SCT250=

USA.gov is the U.S. government's official web portal to all federal, state and local government web resources and services.